Time;durP1;ratioP1;P1;durP2;ratioP2;P2;SDS_P1;SDS_P2;PMS_P1;PMS_P2;Temp;Humidity;BMP_temperature;BMP_pressure;BME280_temperature;BME280_humidity;BME280_pressure;Samples;Min_cycle;Max_cycle;Signal;HPM_P1;HPM_P2
2023/12/07 00:01:08;;;;;;;49.17;22.17;;;;;;;3.61;100.00;100972.47;8367408;28;20119;-57
2023/12/07 00:05:09;;;;;;;45.42;19.00;;;;;;;3.32;100.00;100970.53;8369013;28;20250;-55
2023/12/07 00:09:09;;;;;;;44.08;19.75;;;;;;;3.14;100.00;100968.88;8364957;28;20041;-55
2023/12/07 00:13:10;;;;;;;45.85;20.48;;;;;;;3.28;100.00;100977.00;8341903;28;20033;-56
2023/12/07 00:17:11;;;;;;;50.30;21.30;;;;;;;3.28;100.00;100971.66;8316260;28;20301;-57
2023/12/07 00:21:11;;;;;;;49.95;22.38;;;;;;;3.21;100.00;100982.78;8297307;28;20302;-56
2023/12/07 00:25:12;;;;;;;49.40;21.25;;;;;;;3.15;100.00;100973.28;8314305;28;20041;-57
2023/12/07 00:29:12;;;;;;;51.47;22.20;;;;;;;3.31;100.00;100982.19;8311505;28;20167;-57
2023/12/07 00:33:13;;;;;;;49.03;21.63;;;;;;;3.20;100.00;100976.56;8310618;28;20267;-56
2023/12/07 00:37:13;;;;;;;50.97;21.58;;;;;;;2.96;100.00;100983.19;8312294;28;20513;-56
2023/12/07 00:41:14;;;;;;;49.80;21.52;;;;;;;2.99;100.00;100972.34;8325294;28;20064;-54
2023/12/07 00:45:14;;;;;;;53.28;22.42;;;;;;;3.10;100.00;100975.34;8368262;28;20454;-55
2023/12/07 00:49:15;;;;;;;52.90;22.45;;;;;;;3.14;100.00;100976.88;8317625;28;20041;-55
2023/12/07 00:53:15;;;;;;;48.70;22.15;;;;;;;3.24;100.00;100970.13;8306480;28;20040;-57
2023/12/07 00:57:16;;;;;;;50.35;21.92;;;;;;;3.30;100.00;100974.25;8351938;28;20120;-55
2023/12/07 01:01:16;;;;;;;52.40;23.73;;;;;;;3.08;100.00;100976.38;8366798;28;20037;-55
2023/12/07 01:05:17;;;;;;;50.63;22.65;;;;;;;2.97;100.00;100984.06;8355696;28;20044;-56
2023/12/07 01:09:17;;;;;;;48.97;21.52;;;;;;;3.28;100.00;100982.34;8364484;28;20064;-55
2023/12/07 01:13:18;;;;;;;55.33;22.08;;;;;;;3.30;100.00;100988.47;8317680;28;20045;-57
2023/12/07 01:17:18;;;;;;;52.05;22.38;;;;;;;3.52;100.00;100982.81;8299607;28;20098;-57
2023/12/07 01:21:19;;;;;;;46.92;22.83;;;;;;;3.57;100.00;100981.59;8320078;28;20109;-54
2023/12/07 01:25:21;;;;;;;49.20;22.17;;;;;;;3.44;100.00;100975.22;8318968;28;20319;-54
2023/12/07 01:29:21;;;;;;;50.33;20.38;;;;;;;3.34;100.00;100976.69;8313034;28;20283;-52
2023/12/07 01:33:22;;;;;;;54.53;23.33;;;;;;;3.31;100.00;100982.19;8319988;28;20044;-58
2023/12/07 01:37:23;;;;;;;49.08;21.70;;;;;;;3.28;100.00;100990.38;8355518;28;20470;-55
2023/12/07 01:41:24;;;;;;;56.28;23.17;;;;;;;3.27;100.00;100991.28;8310224;28;20466;-54
2023/12/07 01:45:24;;;;;;;56.85;23.15;;;;;;;3.27;100.00;100996.63;8271735;28;20040;-56
2023/12/07 01:49:25;;;;;;;50.95;22.58;;;;;;;3.17;100.00;101002.59;8271130;28;20292;-56
2023/12/07 01:53:26;;;;;;;61.17;23.20;;;;;;;3.11;100.00;101003.75;8271527;28;20467;-54
2023/12/07 01:57:27;;;;;;;56.33;23.58;;;;;;;3.07;100.00;101010.22;8275902;28;20124;-56
2023/12/07 02:01:27;;;;;;;49.13;21.73;;;;;;;2.82;100.00;101022.25;8297094;28;20040;-55
2023/12/07 02:05:29;;;;;;;45.92;20.40;;;;;;;2.90;100.00;101018.25;8300049;28;20262;-54
2023/12/07 02:09:29;;;;;;;50.75;21.67;;;;;;;3.09;100.00;101003.00;8295653;28;20137;-55
2023/12/07 02:13:30;;;;;;;53.45;22.77;;;;;;;3.37;100.00;101013.03;8312886;28;20231;-55
2023/12/07 02:17:38;;;;;;;51.75;23.73;;;;;;;3.40;100.00;101013.75;8346877;28;20167;-56
2023/12/07 02:21:45;;;;;;;57.10;22.58;;;;;;;3.54;100.00;101021.84;8325919;28;20131;-55
2023/12/07 02:25:53;;;;;;;61.80;24.67;;;;;;;3.61;100.00;101017.94;8309029;28;20695;-55
2023/12/07 02:29:53;;;;;;;62.92;24.52;;;;;;;3.82;100.00;101027.41;8317953;28;20044;-55
2023/12/07 02:33:54;;;;;;;59.08;24.55;;;;;;;3.81;100.00;101016.78;8317800;28;20102;-54
2023/12/07 02:37:55;;;;;;;64.60;24.42;;;;;;;3.83;100.00;101018.44;8319026;28;20036;-56
2023/12/07 02:41:56;;;;;;;59.38;22.77;;;;;;;3.73;100.00;101011.88;8318218;28;20036;-55
2023/12/07 02:45:57;;;;;;;60.03;22.52;;;;;;;3.78;100.00;101009.81;8316608;28;20060;-56
2023/12/07 02:49:58;;;;;;;56.60;23.00;;;;;;;3.66;100.00;101004.31;8363711;28;20040;-57
2023/12/07 02:53:58;;;;;;;57.58;23.35;;;;;;;3.31;100.00;101005.34;8368778;28;20036;-56
2023/12/07 02:58:00;;;;;;;60.53;23.58;;;;;;;3.65;100.00;101003.44;8386287;28;20036;-56
2023/12/07 03:02:00;;;;;;;55.88;22.88;;;;;;;3.70;100.00;101000.50;8371088;28;20040;-58
2023/12/07 03:06:01;;;;;;;51.50;22.40;;;;;;;3.62;100.00;100992.03;8327081;28;20745;-54
2023/12/07 03:10:02;;;;;;;58.78;22.90;;;;;;;3.56;100.00;100995.91;8318420;28;20718;-54
2023/12/07 03:14:03;;;;;;;47.83;21.30;;;;;;;3.66;100.00;101007.81;8316160;28;20047;-56
2023/12/07 03:18:04;;;;;;;50.17;21.75;;;;;;;3.65;100.00;100998.09;8315691;28;20028;-55
2023/12/07 03:22:06;;;;;;;48.13;21.83;;;;;;;3.67;100.00;100995.31;8314941;28;20350;-56
2023/12/07 03:26:07;;;;;;;55.85;21.55;;;;;;;3.60;100.00;100989.44;8315095;28;20741;-56
2023/12/07 03:30:08;;;;;;;55.47;21.15;;;;;;;3.52;100.00;100994.38;8315097;28;20639;-57
2023/12/07 03:34:08;;;;;;;43.17;18.77;;;;;;;3.48;100.00;100989.28;8341115;28;20063;-59
2023/12/07 03:38:09;;;;;;;43.10;18.83;;;;;;;3.44;100.00;100983.22;8369259;28;20040;-59
2023/12/07 03:42:09;;;;;;;39.75;17.73;;;;;;;3.55;100.00;100986.19;8371905;28;20040;-58
2023/12/07 03:46:10;;;;;;;40.58;17.92;;;;;;;3.62;100.00;100987.56;8365301;28;20041;-59
2023/12/07 03:50:10;;;;;;;38.35;16.33;;;;;;;3.56;100.00;100990.56;8370790;28;20051;-59
2023/12/07 03:54:10;;;;;;;47.35;17.50;;;;;;;3.61;100.00;100985.84;8336383;28;20040;-56
2023/12/07 03:58:13;;;;;;;45.95;16.95;;;;;;;3.65;100.00;100983.84;8314586;28;20281;-56
2023/12/07 04:02:13;;;;;;;38.53;16.20;;;;;;;3.40;100.00;100992.38;8310617;28;20254;-56
2023/12/07 04:06:14;;;;;;;39.25;16.58;;;;;;;3.26;100.00;100992.25;8330231;28;20040;-56
2023/12/07 04:10:14;;;;;;;41.22;17.10;;;;;;;3.19;100.00;100981.97;8315132;28;20544;-54
2023/12/07 04:14:15;;;;;;;44.13;17.48;;;;;;;2.96;100.00;100991.22;8312784;28;20044;-55
2023/12/07 04:18:15;;;;;;;44.15;18.30;;;;;;;2.78;100.00;100992.22;8311739;28;20266;-56
2023/12/07 04:22:16;;;;;;;44.13;17.15;;;;;;;2.66;100.00;101000.84;8344389;28;20033;-56
2023/12/07 04:26:16;;;;;;;40.83;17.55;;;;;;;2.61;100.00;100989.53;8369102;28;20076;-56
2023/12/07 04:30:17;;;;;;;38.25;16.52;;;;;;;2.64;100.00;100999.19;8367863;28;20048;-58
2023/12/07 04:34:17;;;;;;;42.47;17.20;;;;;;;2.63;100.00;100998.34;8370044;28;20045;-57
2023/12/07 04:38:18;;;;;;;35.60;15.65;;;;;;;2.58;100.00;100999.50;8350535;28;20040;-56
2023/12/07 04:42:18;;;;;;;38.60;16.70;;;;;;;2.44;100.00;101013.53;8349349;28;20282;-56
2023/12/07 04:46:19;;;;;;;37.85;16.65;;;;;;;2.42;100.00;101015.44;8357604;28;20049;-57
2023/12/07 04:50:20;;;;;;;37.38;16.90;;;;;;;2.36;100.00;101007.75;8371284;28;20402;-57
2023/12/07 04:54:20;;;;;;;37.63;15.23;;;;;;;2.18;100.00;101014.00;8372746;28;20036;-56
2023/12/07 04:58:20;;;;;;;44.38;15.80;;;;;;;2.30;100.00;101025.84;8344393;28;20048;-55
2023/12/07 05:02:21;;;;;;;35.33;14.43;;;;;;;2.37;100.00;101028.13;8303159;28;20690;-55
2023/12/07 05:06:21;;;;;;;39.22;15.15;;;;;;;2.40;100.00;101032.44;8318777;28;20725;-54
2023/12/07 05:10:22;;;;;;;33.05;14.70;;;;;;;2.36;100.00;101037.09;8314916;28;20414;-55
2023/12/07 05:14:23;;;;;;;36.25;13.90;;;;;;;2.47;100.00;101048.06;8319723;28;20048;-54
2023/12/07 05:18:23;;;;;;;31.40;13.90;;;;;;;2.48;100.00;101046.28;8316825;28;20127;-55
2023/12/07 05:22:23;;;;;;;35.25;13.88;;;;;;;2.53;100.00;101047.75;8313824;28;20037;-57
2023/12/07 05:26:24;;;;;;;45.75;13.98;;;;;;;2.63;100.00;101050.84;8346154;28;20041;-57
2023/12/07 05:30:24;;;;;;;31.50;12.85;;;;;;;2.83;100.00;101056.88;8372246;28;20068;-55
2023/12/07 05:34:25;;;;;;;29.77;13.65;;;;;;;2.91;100.00;101057.38;8371480;28;20402;-57
2023/12/07 05:38:25;;;;;;;36.55;15.43;;;;;;;2.87;100.00;101057.59;8375248;28;20040;-57
2023/12/07 05:42:26;;;;;;;31.02;12.73;;;;;;;2.84;100.00;101050.59;8366711;28;20534;-54
2023/12/07 05:46:28;;;;;;;35.75;14.55;;;;;;;2.79;100.00;101041.97;8370977;28;20047;-56
2023/12/07 05:50:28;;;;;;;35.38;14.95;;;;;;;2.70;100.00;101026.44;8372574;28;20128;-53
2023/12/07 05:54:29;;;;;;;31.15;14.18;;;;;;;2.70;100.00;101042.44;8373224;28;20040;-57
2023/12/07 05:58:29;;;;;;;34.08;13.88;;;;;;;2.78;100.00;101045.59;8371183;28;20047;-58
2023/12/07 06:02:30;;;;;;;36.15;14.70;;;;;;;2.79;100.00;101041.09;8374237;28;20044;-57
2023/12/07 06:06:31;;;;;;;30.30;14.25;;;;;;;2.76;100.00;101036.78;8350408;28;20404;-58
2023/12/07 06:10:31;;;;;;;31.58;14.88;;;;;;;2.70;100.00;101034.44;8371385;28;20498;-56
2023/12/07 06:14:32;;;;;;;31.75;13.68;;;;;;;2.67;100.00;101026.59;8368910;28;20040;-57
2023/12/07 06:18:32;;;;;;;37.17;13.95;;;;;;;2.61;100.00;101021.56;8366571;28;20036;-58
2023/12/07 06:22:32;;;;;;;31.80;14.05;;;;;;;2.57;100.00;101013.78;8346685;28;20053;-58
2023/12/07 06:26:33;;;;;;;35.58;13.90;;;;;;;2.59;100.00;101010.09;8304640;28;20491;-57
2023/12/07 06:30:34;;;;;;;26.77;11.82;;;;;;;2.71;100.00;101025.47;8358079;28;20060;-56
2023/12/07 06:34:40;;;;;;;30.13;13.00;;;;;;;2.51;100.00;101014.09;8365295;28;20067;-55
2023/12/07 06:38:41;;;;;;;35.05;14.90;;;;;;;2.48;100.00;101009.81;8350866;28;20036;-57
2023/12/07 06:42:41;;;;;;;34.78;13.85;;;;;;;2.50;100.00;101015.91;8368734;28;20057;-57
2023/12/07 06:46:41;;;;;;;32.63;14.30;;;;;;;2.52;100.00;101010.47;8363870;28;20045;-57
2023/12/07 06:50:42;;;;;;;39.78;15.32;;;;;;;2.51;100.00;101020.31;8355046;28;20033;-59
2023/12/07 06:54:42;;;;;;;39.13;15.88;;;;;;;2.44;100.00;101013.53;8372216;28;20036;-57
2023/12/07 06:58:43;;;;;;;32.10;13.60;;;;;;;2.47;100.00;101008.06;8374280;28;20494;-58
2023/12/07 07:02:43;;;;;;;39.35;14.60;;;;;;;2.40;100.00;101006.66;8368591;28;20066;-59
2023/12/07 07:06:44;;;;;;;35.35;15.13;;;;;;;2.29;100.00;101003.66;8355901;28;20048;-59
2023/12/07 07:10:46;;;;;;;41.70;16.58;;;;;;;2.41;100.00;101007.50;8375419;28;20037;-58
2023/12/07 07:14:47;;;;;;;36.97;16.02;;;;;;;2.42;100.00;101014.56;8375297;28;20036;-57
2023/12/07 07:18:47;;;;;;;40.85;17.05;;;;;;;2.56;100.00;101012.91;8373604;28;20041;-57
2023/12/07 07:22:48;;;;;;;45.45;17.25;;;;;;;2.57;99.48;101009.34;8373151;28;20059;-58
2023/12/07 07:26:48;;;;;;;41.22;16.85;;;;;;;2.53;99.35;101023.75;8374222;28;20490;-58
2023/12/07 07:30:49;;;;;;;40.97;16.48;;;;;;;2.53;99.67;101010.41;8375303;28;20036;-58
2023/12/07 07:34:49;;;;;;;42.15;17.70;;;;;;;2.49;99.41;101016.84;8373223;28;20045;-62
2023/12/07 07:38:49;;;;;;;36.70;15.70;;;;;;;2.51;99.58;101014.97;8374909;28;20029;-57
2023/12/07 07:42:50;;;;;;;39.55;16.15;;;;;;;2.58;99.12;101008.38;8374678;28;20334;-59
2023/12/07 07:46:50;;;;;;;33.75;15.10;;;;;;;2.60;99.20;101014.50;8372387;28;20055;-56
2023/12/07 07:50:51;;;;;;;37.33;15.52;;;;;;;2.48;98.78;101009.81;8375145;28;20040;-57
2023/12/07 07:54:52;;;;;;;34.08;14.63;;;;;;;2.36;99.16;101010.41;8369953;28;20037;-58
2023/12/07 07:58:52;;;;;;;36.38;15.82;;;;;;;2.46;99.99;101011.66;8375957;28;20040;-58
2023/12/07 08:02:52;;;;;;;38.13;15.98;;;;;;;2.62;100.00;101014.44;8375495;28;20043;-59
2023/12/07 08:06:53;;;;;;;39.75;16.00;;;;;;;2.81;100.00;101017.88;8374721;28;20506;-59
2023/12/07 08:10:53;;;;;;;35.42;16.27;;;;;;;2.86;99.09;101021.16;8371159;28;20045;-55
2023/12/07 08:14:53;;;;;;;37.78;16.30;;;;;;;3.04;98.91;101014.84;8374170;28;20513;-54
2023/12/07 08:18:54;;;;;;;40.63;15.15;;;;;;;3.07;98.02;101020.03;8371926;28;20068;-53
2023/12/07 08:22:54;;;;;;;35.22;15.02;;;;;;;3.25;97.83;101003.91;8371696;28;20060;-54
2023/12/07 08:26:55;;;;;;;35.83;15.10;;;;;;;3.20;97.41;101013.09;8372559;28;20044;-54
2023/12/07 08:30:55;;;;;;;34.88;14.95;;;;;;;3.30;97.41;101009.81;8356579;28;20044;-54
2023/12/07 08:34:56;;;;;;;44.03;17.48;;;;;;;4.33;94.34;101009.34;8371554;28;20029;-55
2023/12/07 08:38:56;;;;;;;40.80;18.20;;;;;;;5.26;88.24;101011.66;8373588;28;20119;-55
2023/12/07 08:42:56;;;;;;;36.35;16.52;;;;;;;6.16;83.20;101003.13;8373827;28;20040;-54
2023/12/07 08:46:57;;;;;;;35.63;15.77;;;;;;;6.52;81.04;101005.22;8371405;28;20033;-54
2023/12/07 08:50:57;;;;;;;30.55;14.65;;;;;;;6.68;79.13;100998.66;8374064;28;20037;-54
2023/12/07 08:54:57;;;;;;;24.85;12.48;;;;;;;6.58;79.05;100996.72;8370363;28;20037;-53
2023/12/07 08:58:58;;;;;;;26.38;12.65;;;;;;;6.01;81.19;100996.94;8373289;28;20040;-54
2023/12/07 09:02:58;;;;;;;25.35;12.82;;;;;;;5.50;82.74;100994.91;8370893;28;20110;-57
2023/12/07 09:06:59;;;;;;;24.65;13.00;;;;;;;6.00;83.35;100999.72;8373543;28;20041;-55
2023/12/07 09:10:59;;;;;;;33.38;14.48;;;;;;;6.95;80.55;100996.78;8372592;28;20037;-54
2023/12/07 09:15:00;;;;;;;26.98;13.80;;;;;;;6.96;78.22;100993.16;8371339;28;20167;-54
2023/12/07 09:19:01;;;;;;;25.02;13.07;;;;;;;7.46;76.24;100982.38;8373488;28;20036;-54
2023/12/07 09:23:03;;;;;;;29.15;13.07;;;;;;;8.13;74.80;100978.31;8368808;28;20112;-55
2023/12/07 09:27:04;;;;;;;25.08;12.32;;;;;;;8.31;72.92;100986.88;8376000;28;20048;-55
2023/12/07 09:31:04;;;;;;;22.75;11.32;;;;;;;8.36;72.21;100984.72;8379300;28;20040;-55
2023/12/07 09:35:10;;;;;;;22.45;12.18;;;;;;;8.39;72.93;100995.25;8374312;28;20227;-56
2023/12/07 09:39:10;;;;;;;25.42;12.90;;;;;;;8.54;72.39;100988.72;8371499;28;20107;-54
2023/12/07 09:43:12;;;;;;;23.15;11.35;;;;;;;9.28;69.66;100987.31;8377571;28;20132;-56
2023/12/07 09:47:13;;;;;;;23.33;11.50;;;;;;;9.03;70.65;100986.66;8376918;28;20433;-54
2023/12/07 09:51:15;;;;;;;18.25;10.02;;;;;;;9.31;70.10;100988.91;8375533;28;20570;-56
2023/12/07 09:55:18;;;;;;;19.00;10.43;;;;;;;9.33;69.32;100995.06;8373144;28;20132;-56
2023/12/07 09:59:18;;;;;;;21.33;10.70;;;;;;;9.33;69.61;100990.50;8375221;28;20045;-56
2023/12/07 10:03:21;;;;;;;20.40;11.10;;;;;;;9.01;69.50;100988.59;8376184;28;20040;-56
2023/12/07 10:07:33;;;;;;;21.75;11.57;;;;;;;8.99;71.31;100982.47;8374965;28;20041;-56
2023/12/07 10:11:34;;;;;;;26.70;14.13;;;;;;;9.50;70.58;100981.94;8371171;28;20037;-57
2023/12/07 10:15:34;;;;;;;22.00;12.30;;;;;;;9.76;69.02;100966.34;8376785;28;20033;-55
2023/12/07 10:19:35;;;;;;;29.08;14.75;;;;;;;9.78;69.52;100961.66;8374663;28;20044;-56
2023/12/07 10:23:37;;;;;;;36.22;16.00;;;;;;;9.87;68.72;100952.81;8374684;28;20115;-55
2023/12/07 10:27:40;;;;;;;39.15;17.73;;;;;;;10.04;69.30;100936.09;8374166;28;20041;-56
2023/12/07 10:31:41;;;;;;;28.23;15.55;;;;;;;9.21;70.15;100942.06;8376853;28;20520;-54
2023/12/07 10:35:43;;;;;;;32.10;15.10;;;;;;;9.08;71.72;100927.81;8373914;28;20380;-54
2023/12/07 10:39:43;;;;;;;25.88;13.13;;;;;;;9.20;70.77;100918.75;8376296;28;20044;-54
2023/12/07 10:43:46;;;;;;;22.58;12.98;;;;;;;9.07;72.35;100912.63;8375609;28;20033;-54
2023/12/07 10:47:48;;;;;;;20.85;12.15;;;;;;;8.44;74.73;100896.06;8373711;28;20076;-55
2023/12/07 10:52:00;;;;;;;23.38;12.02;;;;;;;8.69;74.12;100898.59;8373787;28;22172;-55
2023/12/07 10:56:01;;;;;;;19.67;11.55;;;;;;;9.19;71.26;100896.34;8371235;28;20029;-55
2023/12/07 11:00:02;;;;;;;16.98;9.82;;;;;;;9.05;72.41;100882.19;8375932;28;20040;-53
2023/12/07 11:04:05;;;;;;;15.55;9.55;;;;;;;9.16;71.23;100868.72;8370145;28;20048;-54
2023/12/07 11:08:09;;;;;;;16.67;10.63;;;;;;;8.87;72.92;100870.19;8374132;28;20048;-55
2023/12/07 11:12:18;;;;;;;17.05;10.18;;;;;;;8.70;74.28;100851.78;8371793;28;20040;-55
2023/12/07 11:16:29;;;;;;;20.23;9.30;;;;;;;8.94;71.67;100855.25;8373868;28;20059;-54
2023/12/07 11:20:41;;;;;;;20.80;11.70;;;;;;;8.80;72.97;100840.16;8373581;28;20083;-54
2023/12/07 11:25:00;;;;;;;24.10;11.07;;;;;;;9.26;72.24;100832.81;8372449;28;20040;-54
2023/12/07 11:29:01;;;;;;;18.27;10.10;;;;;;;9.49;70.67;100812.03;8356413;28;20060;-55
2023/12/07 11:33:04;;;;;;;19.60;9.55;;;;;;;9.73;70.16;100826.19;8369321;28;20502;-56
2023/12/07 11:37:07;;;;;;;17.40;10.32;;;;;;;9.02;71.40;100828.50;8368802;28;20071;-55
2023/12/07 11:41:08;;;;;;;13.32;8.57;;;;;;;9.06;71.31;100830.00;8373275;28;20040;-55
2023/12/07 11:45:08;;;;;;;15.82;7.65;;;;;;;9.07;71.07;100812.84;8374911;28;20597;-55
2023/12/07 11:49:11;;;;;;;15.73;8.48;;;;;;;8.86;71.29;100806.47;8371642;28;20435;-55
2023/12/07 11:53:11;;;;;;;12.30;7.18;;;;;;;9.01;70.87;100811.50;8375012;28;20049;-56
2023/12/07 11:57:13;;;;;;;13.30;7.63;;;;;;;8.85;71.18;100810.16;8373737;28;20506;-55
2023/12/07 12:01:16;;;;;;;11.55;6.30;;;;;;;8.33;72.90;100799.06;8373138;28;20044;-56
2023/12/07 12:05:16;;;;;;;13.48;7.63;;;;;;;7.71;75.14;100812.78;8356670;28;20487;-57
2023/12/07 12:09:17;;;;;;;14.23;7.65;;;;;;;7.66;75.60;100808.72;8383552;28;20061;-55
2023/12/07 12:13:19;;;;;;;10.35;6.90;;;;;;;7.65;75.86;100807.88;8373988;28;20060;-56
2023/12/07 12:17:20;;;;;;;13.05;7.63;;;;;;;7.46;77.66;100804.84;8373657;28;20109;-56
2023/12/07 12:21:20;;;;;;;17.92;8.07;;;;;;;7.61;76.77;100798.31;8354209;28;20469;-57
2023/12/07 12:25:28;;;;;;;19.00;8.05;;;;;;;7.71;76.25;100777.81;8365159;28;20053;-56
2023/12/07 12:29:28;;;;;;;13.88;7.30;;;;;;;7.54;79.47;100775.50;8374693;28;20515;-55
2023/12/07 12:33:30;;;;;;;17.15;8.02;;;;;;;7.68;77.11;100756.50;8372845;28;20473;-56
2023/12/07 12:37:32;;;;;;;20.38;9.55;;;;;;;7.44;78.03;100752.97;8372549;28;20044;-56
2023/12/07 12:41:32;;;;;;;15.70;9.40;;;;;;;7.19;78.52;100745.03;8374185;28;20040;-56
2023/12/07 12:45:33;;;;;;;16.67;8.98;;;;;;;7.09;79.27;100735.94;8367572;28;20507;-56
2023/12/07 12:49:36;;;;;;;14.05;8.40;;;;;;;6.99;80.48;100736.72;8355653;28;20063;-55
2023/12/07 12:53:44;;;;;;;15.52;9.27;;;;;;;7.02;80.44;100721.22;8376019;28;20480;-55
2023/12/07 12:57:45;;;;;;;19.15;9.20;;;;;;;6.85;81.02;100713.53;8372289;28;20036;-56
2023/12/07 13:01:45;;;;;;;18.38;8.90;;;;;;;6.99;80.47;100713.41;8380526;28;20041;-55
2023/12/07 13:05:47;;;;;;;17.10;9.05;;;;;;;6.95;81.35;100703.81;8367810;28;20072;-56
2023/12/07 13:09:47;;;;;;;20.33;10.23;;;;;;;6.95;80.98;100695.75;8379966;28;20055;-55
2023/12/07 13:13:48;;;;;;;18.75;9.48;;;;;;;6.99;81.48;100681.16;8369477;28;20052;-55
2023/12/07 13:17:48;;;;;;;19.75;9.15;;;;;;;6.94;82.13;100667.19;8383246;28;20040;-55
2023/12/07 13:21:49;;;;;;;18.00;9.18;;;;;;;7.02;81.02;100648.63;8373364;28;20106;-56
2023/12/07 13:25:49;;;;;;;12.70;8.45;;;;;;;7.06;80.61;100650.16;8378251;28;20041;-55
2023/12/07 13:29:50;;;;;;;16.95;7.97;;;;;;;7.14;79.75;100642.34;8379069;28;20040;-54
2023/12/07 13:33:50;;;;;;;14.30;7.60;;;;;;;7.27;79.66;100620.78;8377070;28;20329;-55
2023/12/07 13:37:51;;;;;;;16.33;8.38;;;;;;;7.36;79.44;100634.38;8378673;28;20041;-56
2023/12/07 13:41:51;;;;;;;17.35;8.05;;;;;;;7.20;81.37;100628.44;8377709;28;20410;-55
2023/12/07 13:45:52;;;;;;;15.48;8.75;;;;;;;7.02;81.42;100627.13;8375733;28;20052;-53
2023/12/07 13:49:53;;;;;;;13.55;8.02;;;;;;;6.88;82.39;100619.28;8360766;28;20040;-56
2023/12/07 13:53:55;;;;;;;13.20;8.13;;;;;;;6.73;82.53;100620.41;8374219;28;20048;-57
2023/12/07 13:57:57;;;;;;;20.92;10.55;;;;;;;6.71;82.62;100633.09;8376716;28;20079;-56
2023/12/07 14:01:57;;;;;;;16.58;8.30;;;;;;;6.62;82.72;100633.75;8371320;28;20037;-55
2023/12/07 14:05:58;;;;;;;15.70;7.93;;;;;;;6.49;83.53;100635.66;8374650;28;20036;-55
2023/12/07 14:09:58;;;;;;;14.02;8.13;;;;;;;6.43;83.39;100627.19;8370812;28;20041;-56
2023/12/07 14:13:58;;;;;;;17.25;9.43;;;;;;;6.30;83.74;100615.59;8342128;28;20573;-54
2023/12/07 14:18:00;;;;;;;15.25;8.13;;;;;;;6.14;84.18;100610.50;8372766;28;20033;-55
2023/12/07 14:22:01;;;;;;;24.38;10.43;;;;;;;6.10;84.43;100582.16;8371361;28;20577;-57
2023/12/07 14:26:02;;;;;;;26.17;10.65;;;;;;;6.03;84.63;100591.63;8374199;28;20117;-56
2023/12/07 14:30:03;;;;;;;17.50;10.15;;;;;;;5.90;84.65;100580.06;8372996;28;20040;-56
2023/12/07 14:34:03;;;;;;;16.23;8.77;;;;;;;5.82;84.74;100560.97;8372357;28;20049;-56
2023/12/07 14:38:04;;;;;;;18.58;10.20;;;;;;;5.77;85.25;100563.09;8374085;28;20532;-55
2023/12/07 14:42:05;;;;;;;16.73;9.98;;;;;;;5.73;85.42;100561.59;8373357;28;20044;-55
2023/12/07 14:46:07;;;;;;;20.58;10.35;;;;;;;5.61;85.70;100551.72;8371827;28;20052;-56
2023/12/07 14:50:08;;;;;;;34.13;14.35;;;;;;;5.64;86.06;100540.78;8374006;28;20131;-56
2023/12/07 14:54:09;;;;;;;19.17;11.95;;;;;;;5.53;86.11;100524.63;8370383;28;20040;-54
2023/12/07 14:58:10;;;;;;;19.02;11.48;;;;;;;5.51;86.23;100519.34;8372604;28;20498;-55
2023/12/07 15:02:11;;;;;;;18.98;10.95;;;;;;;5.32;86.89;100515.41;8369410;28;20409;-55
2023/12/07 15:06:12;;;;;;;19.88;9.45;;;;;;;5.32;87.07;100510.03;8368793;28;20075;-57
2023/12/07 15:10:12;;;;;;;18.98;11.07;;;;;;;5.37;86.18;100502.53;8370667;28;20036;-58
2023/12/07 15:14:12;;;;;;;23.13;9.85;;;;;;;5.24;87.15;100504.34;8370116;28;20037;-55
2023/12/07 15:18:13;;;;;;;18.55;10.43;;;;;;;5.19;87.10;100498.47;8368924;28;20399;-52
2023/12/07 15:22:13;;;;;;;20.48;10.10;;;;;;;5.13;87.81;100490.88;8366999;28;20052;-54
2023/12/07 15:26:14;;;;;;;23.02;11.90;;;;;;;5.17;87.84;100479.81;8371513;28;20405;-55
2023/12/07 15:30:15;;;;;;;19.30;10.63;;;;;;;5.05;87.94;100490.53;8370035;28;20032;-56
2023/12/07 15:34:15;;;;;;;21.65;10.57;;;;;;;5.13;88.53;100501.59;8369316;28;20041;-53
2023/12/07 15:38:16;;;;;;;17.60;9.82;;;;;;;5.09;88.69;100489.38;8370598;28;20043;-55
2023/12/07 15:42:16;;;;;;;21.98;10.10;;;;;;;5.03;88.33;100505.88;8372566;28;20391;-55
2023/12/07 15:46:17;;;;;;;22.38;10.95;;;;;;;5.13;88.10;100490.88;8364448;28;20396;-53
2023/12/07 15:50:17;;;;;;;17.67;10.55;;;;;;;5.06;88.40;100490.41;8367606;28;20044;-54
2023/12/07 15:54:18;;;;;;;21.80;9.95;;;;;;;5.08;88.45;100488.50;8367769;28;20119;-54
2023/12/07 15:58:18;;;;;;;18.58;10.57;;;;;;;5.08;88.56;100474.25;8366790;28;20044;-53
2023/12/07 16:02:19;;;;;;;21.60;11.60;;;;;;;5.04;88.94;100480.78;8367557;28;20041;-54
2023/12/07 16:06:20;;;;;;;25.75;11.43;;;;;;;5.04;88.89;100454.88;8348745;28;20490;-55
2023/12/07 16:10:20;;;;;;;24.73;12.15;;;;;;;5.03;89.24;100473.72;8366513;28;20033;-54
2023/12/07 16:14:22;;;;;;;28.15;11.18;;;;;;;5.11;88.89;100468.66;8367366;28;20487;-55
2023/12/07 16:18:22;;;;;;;22.42;10.98;;;;;;;5.03;89.03;100465.69;8367635;28;20046;-55
2023/12/07 16:22:24;;;;;;;21.90;11.98;;;;;;;5.02;89.02;100455.91;8358311;28;20044;-57
2023/12/07 16:26:24;;;;;;;22.05;10.90;;;;;;;5.10;89.49;100442.84;8372415;28;20045;-56
2023/12/07 16:30:25;;;;;;;23.23;11.57;;;;;;;5.04;89.50;100448.63;8369822;28;20044;-56
2023/12/07 16:34:25;;;;;;;26.52;11.60;;;;;;;4.99;89.32;100445.41;8367341;28;20059;-55
2023/12/07 16:38:25;;;;;;;19.33;11.05;;;;;;;4.98;89.55;100428.50;8374084;28;20162;-56
2023/12/07 16:42:26;;;;;;;24.48;11.80;;;;;;;4.96;89.31;100424.19;8364614;28;20036;-56
2023/12/07 16:46:26;;;;;;;23.25;11.32;;;;;;;5.05;89.50;100411.03;8347085;28;20032;-55
2023/12/07 16:50:27;;;;;;;20.67;11.02;;;;;;;4.99;90.08;100416.81;8372086;28;20384;-55
2023/12/07 16:54:28;;;;;;;21.13;10.85;;;;;;;5.02;90.23;100407.69;8371059;28;20045;-56
2023/12/07 16:58:28;;;;;;;23.30;12.68;;;;;;;4.99;90.64;100408.78;8370388;28;20071;-55
2023/12/07 17:02:30;;;;;;;21.52;11.75;;;;;;;5.01;90.22;100400.63;8368090;28;20098;-54
2023/12/07 17:06:31;;;;;;;26.33;11.50;;;;;;;5.00;90.21;100390.91;8353524;28;20052;-55
2023/12/07 17:10:31;;;;;;;23.38;12.30;;;;;;;4.99;90.14;100383.81;8372023;28;20218;-54
2023/12/07 17:14:32;;;;;;;24.35;11.45;;;;;;;4.97;91.01;100383.06;8364300;28;20037;-56
2023/12/07 17:18:32;;;;;;;23.42;12.70;;;;;;;4.94;90.13;100377.94;8367955;28;20040;-56
2023/12/07 17:22:35;;;;;;;20.67;11.40;;;;;;;4.96;89.29;100370.63;8357452;28;20041;-55
2023/12/07 17:26:37;;;;;;;23.10;10.73;;;;;;;4.95;89.21;100368.91;8360627;28;20118;-55
2023/12/07 17:30:38;;;;;;;20.52;10.93;;;;;;;4.95;88.84;100368.91;8361312;28;20045;-54
2023/12/07 17:34:38;;;;;;;23.60;10.93;;;;;;;4.93;88.40;100365.47;8371388;28;20094;-53
2023/12/07 17:38:39;;;;;;;19.00;10.65;;;;;;;4.95;87.74;100368.91;8371347;28;20101;-55
2023/12/07 17:42:39;;;;;;;21.60;10.00;;;;;;;4.94;87.71;100362.69;8362474;28;20399;-54
2023/12/07 17:46:40;;;;;;;17.55;10.43;;;;;;;4.84;87.95;100366.13;8369589;28;20330;-57
2023/12/07 17:50:41;;;;;;;18.65;9.98;;;;;;;4.86;87.71;100359.72;8372150;28;20565;-55
2023/12/07 17:54:42;;;;;;;18.13;9.57;;;;;;;4.77;87.00;100348.78;8370654;28;20119;-54
2023/12/07 17:58:42;;;;;;;17.48;9.32;;;;;;;4.71;86.20;100342.06;8351889;28;20128;-57
2023/12/07 18:02:43;;;;;;;18.92;9.75;;;;;;;4.70;86.29;100347.53;8369835;28;20036;-54
2023/12/07 18:06:43;;;;;;;14.25;8.32;;;;;;;4.66;85.57;100351.41;8365054;28;20037;-57
2023/12/07 18:10:44;;;;;;;17.85;10.05;;;;;;;4.63;85.66;100346.25;8351930;28;20487;-58
2023/12/07 18:14:44;;;;;;;18.00;9.45;;;;;;;4.60;85.54;100349.16;8363421;28;20064;-56
2023/12/07 18:18:45;;;;;;;21.45;10.57;;;;;;;4.55;85.48;100345.91;8370068;28;20487;-57
2023/12/07 18:22:46;;;;;;;17.67;9.95;;;;;;;4.49;85.37;100343.66;8365224;28;20047;-54